Time;durP1;ratioP1;P1;durP2;ratioP2;P2;SDS_P1;SDS_P2;PMS_P1;PMS_P2;Temp;Humidity;BMP_temperature;BMP_pressure;BME280_temperature;BME280_humidity;BME280_pressure;Samples;Min_cycle;Max_cycle;Signal;HPM_P1;HPM_P2
2021/09/09 00:02:41;;;;;;;13.43;8.95;;;;;;;16.52;64.36;100179.13;8600464;34;20228;-73
2021/09/09 00:07:49;;;;;;;15.63;9.38;;;;;;;16.56;64.24;100177.75;8599985;34;20254;-72
2021/09/09 00:12:53;;;;;;;13.43;9.25;;;;;;;16.61;63.97;100167.25;8600727;34;20197;-72
2021/09/09 00:17:57;;;;;;;14.55;10.07;;;;;;;16.57;64.01;100163.19;8599769;34;20585;-72
2021/09/09 00:23:00;;;;;;;13.73;10.00;;;;;;;16.55;64.10;100154.38;8600755;34;20284;-73
2021/09/09 00:28:05;;;;;;;14.93;10.35;;;;;;;16.44;64.18;100139.28;8598870;34;20628;-72
2021/09/09 00:33:09;;;;;;;12.15;9.05;;;;;;;16.35;64.67;100141.16;8600244;34;20185;-72
2021/09/09 00:38:12;;;;;;;13.75;9.07;;;;;;;16.14;65.32;100136.16;8600114;34;20270;-72
2021/09/09 00:43:16;;;;;;;14.90;9.45;;;;;;;16.09;65.10;100137.69;8599031;34;20219;-72
2021/09/09 00:48:20;;;;;;;13.75;9.10;;;;;;;16.13;65.20;100131.78;8599528;34;20309;-72
2021/09/09 00:53:23;;;;;;;15.40;10.13;;;;;;;16.28;65.03;100140.13;8598778;34;20318;-72
2021/09/09 00:58:27;;;;;;;16.45;10.35;;;;;;;16.39;64.31;100121.84;8600069;34;20185;-72
2021/09/09 01:03:32;;;;;;;15.40;9.90;;;;;;;16.22;64.29;100129.06;8617992;34;20172;-72
2021/09/09 01:08:35;;;;;;;15.55;10.10;;;;;;;16.01;65.21;100118.69;8620114;34;20279;-72
2021/09/09 01:13:51;;;;;;;14.55;9.13;;;;;;;16.00;65.20;100117.03;8622951;34;21514;-72
2021/09/09 01:18:54;;;;;;;14.95;9.77;;;;;;;15.83;65.62;100113.44;8623687;34;20196;-72
2021/09/09 01:23:59;;;;;;;12.32;9.32;;;;;;;15.78;65.83;100113.91;8602879;34;21608;-72
2021/09/09 01:29:03;;;;;;;13.95;9.48;;;;;;;15.84;65.78;100117.81;8628014;34;21030;-72
2021/09/09 01:34:06;;;;;;;16.73;10.20;;;;;;;15.89;65.63;100115.47;8602833;34;20413;-72
2021/09/09 01:39:10;;;;;;;20.75;12.18;;;;;;;15.89;65.69;100112.75;8626922;34;21686;-72
2021/09/09 01:44:14;;;;;;;17.05;10.40;;;;;;;15.97;65.49;100106.50;8612550;34;21933;-72
2021/09/09 01:49:18;;;;;;;13.02;10.25;;;;;;;15.74;65.75;100107.13;8603713;34;20141;-72
2021/09/09 01:54:22;;;;;;;14.57;10.32;;;;;;;15.65;65.99;100103.53;8602667;34;20193;-72
2021/09/09 01:59:27;;;;;;;14.35;10.32;;;;;;;15.56;66.32;100101.81;8602602;34;20141;-72
2021/09/09 02:04:30;;;;;;;24.42;12.55;;;;;;;15.55;66.65;100088.44;8603049;34;20955;-72
2021/09/09 02:09:33;;;;;;;19.98;12.23;;;;;;;15.54;66.65;100084.06;8603032;34;20869;-72
2021/09/09 02:14:37;;;;;;;18.50;12.95;;;;;;;15.49;66.78;100079.13;8602083;34;20231;-72
2021/09/09 02:19:40;;;;;;;18.38;12.68;;;;;;;15.43;66.92;100072.50;8602130;34;20759;-72
2021/09/09 02:24:45;;;;;;;17.25;12.43;;;;;;;15.36;67.28;100065.19;8603203;34;20193;-71
2021/09/09 02:29:50;;;;;;;19.67;12.48;;;;;;;15.38;67.00;100066.72;8602604;34;20153;-72
2021/09/09 02:34:53;;;;;;;19.23;12.82;;;;;;;15.24;67.33;100059.19;8601218;34;20185;-72
2021/09/09 02:39:56;;;;;;;19.48;12.68;;;;;;;15.26;67.58;100058.03;8601898;34;20713;-72
2021/09/09 02:45:01;;;;;;;21.88;13.68;;;;;;;15.26;67.45;100055.31;8601934;34;20492;-72
2021/09/09 02:50:06;;;;;;;20.60;12.63;;;;;;;15.27;67.55;100073.25;8601973;34;20205;-72
2021/09/09 02:55:11;;;;;;;19.27;13.75;;;;;;;15.30;67.43;100069.38;8601120;34;20188;-72
2021/09/09 03:00:16;;;;;;;21.85;13.68;;;;;;;15.35;67.31;100060.81;8601435;34;20834;-72
2021/09/09 03:05:20;;;;;;;17.60;13.13;;;;;;;15.29;67.43;100056.03;8601271;34;20173;-72
2021/09/09 03:10:23;;;;;;;21.20;13.18;;;;;;;15.23;67.27;100054.81;8601926;34;20689;-72
2021/09/09 03:15:27;;;;;;;19.45;12.25;;;;;;;15.19;67.70;100046.19;8600489;34;21439;-72
2021/09/09 03:20:31;;;;;;;20.20;12.65;;;;;;;15.19;67.05;100039.91;8600578;34;20212;-72
2021/09/09 03:25:34;;;;;;;20.67;13.73;;;;;;;15.14;67.24;100032.28;8600883;34;20181;-72
2021/09/09 03:30:38;;;;;;;19.77;13.45;;;;;;;15.07;67.51;100041.22;8601289;34;20240;-72
2021/09/09 03:35:41;;;;;;;19.92;12.77;;;;;;;15.02;67.53;100029.00;8599887;34;20193;-72
2021/09/09 03:40:44;;;;;;;17.80;12.52;;;;;;;15.00;67.76;100017.53;8600675;34;21959;-72
2021/09/09 03:45:49;;;;;;;21.15;13.40;;;;;;;14.83;68.26;100016.56;8601556;34;20424;-72
2021/09/09 03:50:52;;;;;;;21.80;14.50;;;;;;;14.74;68.75;100014.00;8601166;34;20189;-72
2021/09/09 03:55:55;;;;;;;19.85;12.75;;;;;;;14.67;68.88;100007.53;8599737;34;20363;-72
2021/09/09 04:01:03;;;;;;;21.88;13.63;;;;;;;14.72;68.99;100014.16;8576024;34;20149;-72
2021/09/09 04:06:06;;;;;;;21.45;13.40;;;;;;;14.70;68.91;100007.19;8599592;34;20539;-72
2021/09/09 04:11:09;;;;;;;19.58;13.13;;;;;;;14.73;68.67;100013.16;8599868;34;20544;-72
2021/09/09 04:16:14;;;;;;;21.63;14.07;;;;;;;14.69;68.90;100005.53;8598024;34;20252;-72
2021/09/09 04:21:17;;;;;;;19.98;13.45;;;;;;;14.67;68.89;100005.66;8598208;34;20247;-72
2021/09/09 04:26:20;;;;;;;21.00;13.27;;;;;;;14.63;68.95;99996.19;8574681;34;20177;-72
2021/09/09 04:31:24;;;;;;;19.35;12.88;;;;;;;14.55;69.07;99994.28;8599757;34;20181;-72
2021/09/09 04:36:27;;;;;;;21.67;13.68;;;;;;;14.60;68.93;99983.84;8598562;34;21069;-72
2021/09/09 04:41:30;;;;;;;19.90;12.52;;;;;;;14.52;68.80;99977.56;8599439;34;20219;-72
2021/09/09 04:46:34;;;;;;;21.25;13.45;;;;;;;14.50;69.45;99980.41;8598565;34;20278;-72
2021/09/09 04:51:37;;;;;;;23.27;13.63;;;;;;;14.52;68.94;99986.50;8599099;34;20260;-72
2021/09/09 04:56:40;;;;;;;20.55;13.23;;;;;;;14.56;68.74;99989.72;8597998;34;20253;-72
2021/09/09 05:01:45;;;;;;;23.38;12.85;;;;;;;14.36;69.20;99994.47;8599069;34;20867;-72
2021/09/09 05:06:48;;;;;;;18.05;12.27;;;;;;;14.12;70.73;99987.03;8598941;34;20973;-72
2021/09/09 05:11:51;;;;;;;19.55;12.85;;;;;;;14.37;69.83;99985.34;8598344;34;20450;-72
2021/09/09 05:16:55;;;;;;;20.75;13.07;;;;;;;14.46;68.96;99987.16;8598012;34;20458;-72
2021/09/09 05:21:59;;;;;;;21.58;14.00;;;;;;;14.28;69.46;99991.72;8598345;34;20666;-72
2021/09/09 05:27:02;;;;;;;20.30;12.50;;;;;;;14.46;69.30;99981.75;8597821;34;20185;-71
2021/09/09 05:32:07;;;;;;;20.45;14.32;;;;;;;14.55;68.81;99974.53;8598503;34;20154;-72
2021/09/09 05:37:11;;;;;;;19.23;12.75;;;;;;;14.67;68.63;99969.69;8597730;34;20253;-72
2021/09/09 05:42:14;;;;;;;21.45;13.55;;;;;;;14.78;68.51;99981.09;8597888;34;20185;-72
2021/09/09 05:47:18;;;;;;;26.15;14.88;;;;;;;14.97;67.84;99979.13;8597499;34;20189;-72
2021/09/09 05:52:21;;;;;;;23.38;14.23;;;;;;;15.15;67.75;99979.88;8597777;34;20219;-72
2021/09/09 05:57:24;;;;;;;19.48;13.60;;;;;;;15.38;67.30;99976.56;8600315;34;20157;-72
2021/09/09 06:02:29;;;;;;;25.48;13.65;;;;;;;15.60;66.59;99973.22;8602522;34;20181;-72
2021/09/09 06:07:32;;;;;;;19.80;12.88;;;;;;;15.78;66.29;99974.97;8602538;34;20180;-72
2021/09/09 06:12:36;;;;;;;17.45;12.95;;;;;;;16.05;65.56;99981.91;8603231;34;20187;-72
2021/09/09 06:17:40;;;;;;;19.05;13.77;;;;;;;16.19;65.29;99967.66;8577739;34;20690;-72
2021/09/09 06:22:44;;;;;;;19.08;13.32;;;;;;;16.36;64.60;99972.06;8602288;34;20146;-72
2021/09/09 06:27:47;;;;;;;21.08;12.75;;;;;;;16.50;64.27;99966.97;8601760;34;20247;-72
2021/09/09 06:32:51;;;;;;;18.63;12.52;;;;;;;16.63;64.31;99958.31;8602656;34;20661;-72
2021/09/09 06:37:54;;;;;;;21.67;13.35;;;;;;;16.86;63.05;99956.50;8601831;34;20544;-72
2021/09/09 06:42:57;;;;;;;27.50;13.10;;;;;;;17.11;63.17;99950.97;8601596;34;20859;-72
2021/09/09 06:48:02;;;;;;;19.05;11.63;;;;;;;17.38;62.18;99958.66;8600616;34;20848;-72
2021/09/09 06:53:05;;;;;;;18.92;12.27;;;;;;;17.70;61.10;99945.88;8602667;34;20280;-72
2021/09/09 06:58:08;;;;;;;16.52;11.07;;;;;;;17.95;60.25;99953.84;8601995;34;20252;-72
2021/09/09 07:03:14;;;;;;;16.50;11.52;;;;;;;18.22;59.79;99966.03;8600469;34;20233;-71
2021/09/09 07:08:18;;;;;;;16.00;11.55;;;;;;;18.43;59.04;99958.00;8601624;34;21641;-72
2021/09/09 07:13:22;;;;;;;14.90;10.32;;;;;;;18.86;58.20;99962.81;8601518;34;20264;-71
2021/09/09 07:18:27;;;;;;;16.45;10.43;;;;;;;19.26;56.88;99956.00;8599773;34;20702;-72
2021/09/09 07:23:30;;;;;;;16.83;10.68;;;;;;;19.29;55.56;99958.34;8601944;34;20162;-72
2021/09/09 07:28:33;;;;;;;14.20;10.77;;;;;;;19.65;55.33;99952.06;8601430;34;20182;-71
2021/09/09 07:33:39;;;;;;;15.05;11.05;;;;;;;19.48;55.16;99956.88;8601886;34;20211;-72
2021/09/09 07:38:42;;;;;;;18.60;11.20;;;;;;;19.53;54.65;99946.25;8601187;34;20469;-72
2021/09/09 07:43:45;;;;;;;16.08;11.10;;;;;;;19.66;54.94;99951.00;8601542;34;20630;-72
2021/09/09 07:48:50;;;;;;;17.27;10.75;;;;;;;20.07;53.47;99961.22;8601116;34;20424;-72
2021/09/09 07:53:55;;;;;;;14.40;9.57;;;;;;;20.52;53.49;99940.84;8601177;34;20232;-72
2021/09/09 07:58:58;;;;;;;14.32;10.25;;;;;;;20.68;52.53;99944.28;8600502;34;20921;-72
2021/09/09 08:04:02;;;;;;;14.85;10.07;;;;;;;21.13;52.07;99940.13;8600992;34;21115;-71
2021/09/09 08:09:06;;;;;;;15.75;10.00;;;;;;;21.19;51.67;99938.47;8600653;34;20189;-72
2021/09/09 08:14:09;;;;;;;15.73;10.52;;;;;;;21.38;51.49;99940.41;8599126;34;20259;-71
2021/09/09 08:19:13;;;;;;;15.80;9.95;;;;;;;21.32;51.46;99937.66;8576774;34;20238;-71
2021/09/09 08:24:17;;;;;;;14.32;10.57;;;;;;;21.77;50.98;99938.00;8600194;34;20147;-71
2021/09/09 08:29:20;;;;;;;13.95;10.55;;;;;;;21.92;50.32;99932.34;8600098;34;20184;-71
2021/09/09 08:34:24;;;;;;;13.00;9.95;;;;;;;22.22;50.21;99930.84;8600005;34;20773;-72
2021/09/09 08:39:27;;;;;;;13.75;10.15;;;;;;;22.53;49.56;99935.66;8600989;34;20150;-71
2021/09/09 08:44:30;;;;;;;15.75;10.13;;;;;;;22.86;48.64;99925.69;8576001;34;20223;-72
2021/09/09 08:49:35;;;;;;;13.48;9.65;;;;;;;23.31;47.89;99925.72;8600357;34;20188;-71
2021/09/09 08:54:38;;;;;;;13.15;9.20;;;;;;;23.44;47.49;99928.38;8599448;34;20203;-71
2021/09/09 08:59:41;;;;;;;12.63;9.13;;;;;;;24.14;46.53;99933.81;8600264;34;20153;-72
2021/09/09 09:05:08;;;;;;;14.85;9.23;;;;;;;24.86;44.97;99927.81;8599331;34;20235;-72
2021/09/09 09:10:12;;;;;;;13.98;9.77;;;;;;;24.86;45.02;99925.91;8600090;34;20215;-72
2021/09/09 09:15:18;;;;;;;12.45;9.10;;;;;;;25.30;44.33;99918.38;8599132;34;21504;-72
2021/09/09 09:20:25;;;;;;;11.25;9.15;;;;;;;25.47;43.78;99902.06;8575575;34;20447;-72
2021/09/09 09:25:46;;;;;;;13.40;8.95;;;;;;;25.93;43.69;99908.78;8598718;34;20192;-72
2021/09/09 09:31:07;;;;;;;12.07;8.63;;;;;;;26.20;42.57;99897.31;8602479;34;20288;-72
2021/09/09 09:36:34;;;;;;;11.50;8.27;;;;;;;26.45;42.93;99899.84;8604176;34;20146;-72
2021/09/09 09:41:59;;;;;;;10.45;8.63;;;;;;;26.63;41.51;99899.72;8603944;34;20168;-72
2021/09/09 09:47:13;;;;;;;11.40;8.57;;;;;;;26.50;42.21;99899.97;8603731;34;20177;-72
2021/09/09 09:52:23;;;;;;;12.00;8.73;;;;;;;26.97;41.50;99899.91;8603790;34;20184;-72
2021/09/09 09:57:30;;;;;;;11.65;8.25;;;;;;;27.21;40.20;99905.31;8603209;34;20188;-72
2021/09/09 10:02:34;;;;;;;10.60;8.32;;;;;;;27.52;39.97;99904.00;8604057;34;20592;-72
2021/09/09 10:07:39;;;;;;;10.85;8.45;;;;;;;27.82;39.57;99900.94;8603241;34;20138;-72
2021/09/09 10:12:44;;;;;;;13.30;9.18;;;;;;;28.02;39.24;99895.78;8603561;34;20744;-73
2021/09/09 10:17:47;;;;;;;10.25;8.65;;;;;;;27.64;39.40;99892.91;8603106;34;20185;-72
2021/09/09 10:23:04;;;;;;;10.63;8.35;;;;;;;27.99;39.90;99890.75;8603408;34;20145;-70
2021/09/09 10:28:42;;;;;;;13.43;9.23;;;;;;;29.02;37.31;99883.88;8602834;34;20219;-73
2021/09/09 10:33:47;;;;;;;12.05;8.45;;;;;;;29.28;37.82;99874.81;8603026;34;20248;-72
2021/09/09 10:38:51;;;;;;;10.35;8.13;;;;;;;29.35;36.98;99871.88;8602542;34;20863;-72
2021/09/09 10:43:59;;;;;;;12.75;9.50;;;;;;;29.62;36.41;99871.88;8603493;34;20245;-73
2021/09/09 10:49:21;;;;;;;12.15;8.60;;;;;;;29.27;35.50;99870.41;8603515;34;20875;-72
2021/09/09 10:54:25;;;;;;;11.07;8.90;;;;;;;28.65;37.78;99867.97;8601669;34;20593;-73
2021/09/09 10:59:46;;;;;;;16.25;9.30;;;;;;;29.15;37.11;99875.22;8602529;34;20410;-73
2021/09/09 11:04:49;;;;;;;9.85;8.80;;;;;;;29.77;35.71;99869.22;8601710;34;20822;-73
2021/09/09 11:10:03;;;;;;;13.43;8.93;;;;;;;30.11;37.70;99857.00;8602497;34;20691;-73
2021/09/09 11:15:09;;;;;;;13.38;9.00;;;;;;;30.51;34.58;99853.66;8601919;34;21106;-73
2021/09/09 11:20:15;;;;;;;9.60;8.10;;;;;;;30.91;33.99;99846.66;8601767;34;20948;-72
2021/09/09 11:25:20;;;;;;;11.05;7.95;;;;;;;31.75;33.42;99858.47;8601074;34;20219;-73
2021/09/09 11:30:23;;;;;;;13.18;8.98;;;;;;;32.31;33.26;99854.78;8601375;34;21038;-72
2021/09/09 11:35:26;;;;;;;10.10;8.13;;;;;;;33.07;30.92;99839.75;8600989;34;20459;-72
2021/09/09 11:40:30;;;;;;;7.15;6.20;;;;;;;33.42;28.31;99835.09;8601949;34;20443;-72
2021/09/09 11:45:34;;;;;;;7.80;6.47;;;;;;;32.43;30.37;99833.09;8601309;34;20195;-72
2021/09/09 11:50:47;;;;;;;9.00;6.72;;;;;;;33.72;29.17;99834.88;8576941;34;20737;-72
2021/09/09 11:55:52;;;;;;;9.52;6.28;;;;;;;32.74;29.80;99828.25;8599419;34;20200;-72
2021/09/09 12:00:55;;;;;;;7.63;6.53;;;;;;;33.84;28.67;99817.78;8600863;34;21012;-72
2021/09/09 12:05:59;;;;;;;8.63;6.13;;;;;;;34.43;27.35;99830.53;8576593;34;21984;-72
2021/09/09 12:11:12;;;;;;;9.88;6.70;;;;;;;33.75;28.76;99825.09;8601403;34;20450;-72
2021/09/09 12:16:21;;;;;;;7.10;6.25;;;;;;;33.59;28.04;99826.34;8601113;34;20176;-72
2021/09/09 12:21:24;;;;;;;8.43;6.07;;;;;;;32.83;29.09;99822.94;8600969;34;20283;-72
2021/09/09 12:26:29;;;;;;;7.03;6.32;;;;;;;32.57;29.89;99825.81;8599810;34;20129;-72
2021/09/09 12:31:37;;;;;;;6.85;5.75;;;;;;;32.78;29.51;99814.63;8576395;34;20706;-71
2021/09/09 12:36:43;;;;;;;7.53;5.65;;;;;;;34.25;28.22;99808.19;8599953;34;20184;-72
2021/09/09 12:41:48;;;;;;;8.65;5.63;;;;;;;33.65;28.56;99808.50;8600337;34;20844;-72
2021/09/09 12:46:53;;;;;;;6.80;5.40;;;;;;;31.29;31.68;99825.97;8575506;34;20559;-72
2021/09/09 12:52:09;;;;;;;6.65;5.95;;;;;;;31.22;31.79;99810.69;8600204;34;20309;-72
2021/09/09 12:57:28;;;;;;;6.63;6.03;;;;;;;31.89;31.33;99812.38;8599345;34;20513;-72
2021/09/09 13:02:31;;;;;;;7.20;5.93;;;;;;;32.04;31.27;99819.03;8600135;34;20558;-72
2021/09/09 13:07:34;;;;;;;7.47;6.03;;;;;;;32.18;31.00;99806.25;8579849;34;20203;-72
2021/09/09 13:12:39;;;;;;;9.35;6.68;;;;;;;31.52;31.96;99812.66;8604164;34;20693;-72
2021/09/09 13:17:42;;;;;;;7.82;6.30;;;;;;;32.15;31.90;99802.03;8604783;34;20681;-72
2021/09/09 13:22:45;;;;;;;7.47;6.35;;;;;;;32.95;30.57;99800.34;8604120;34;20219;-73
2021/09/09 13:27:49;;;;;;;6.53;5.88;;;;;;;33.87;29.83;99794.06;8603753;34;20191;-73
2021/09/09 13:32:52;;;;;;;7.20;6.32;;;;;;;33.87;30.03;99794.06;8604230;34;20513;-73
2021/09/09 13:37:55;;;;;;;6.40;5.75;;;;;;;31.50;32.83;99806.53;8603503;34;20149;-73
2021/09/09 13:43:01;;;;;;;9.30;6.15;;;;;;;31.76;32.98;99799.06;8603704;34;20286;-72
2021/09/09 13:48:05;;;;;;;7.75;6.95;;;;;;;32.08;32.02;99789.56;8603159;34;20181;-72
2021/09/09 13:53:08;;;;;;;7.28;6.32;;;;;;;30.74;33.89;99785.88;8603376;34;20654;-72
2021/09/09 13:58:13;;;;;;;6.65;5.95;;;;;;;33.22;31.32;99780.44;8603047;34;20184;-72
2021/09/09 14:03:16;;;;;;;9.00;7.15;;;;;;;33.95;30.04;99791.47;8603665;34;20339;-72
2021/09/09 14:08:19;;;;;;;7.88;6.45;;;;;;;32.27;31.54;99782.31;8603272;34;20444;-72
2021/09/09 14:13:23;;;;;;;7.07;6.38;;;;;;;31.36;32.80;99789.63;8603338;34;20551;-72
2021/09/09 14:18:27;;;;;;;6.80;5.97;;;;;;;31.24;34.08;99789.03;8601545;34;20235;-72
2021/09/09 14:23:30;;;;;;;6.70;6.07;;;;;;;31.69;33.05;99781.88;8603077;34;20188;-73
2021/09/09 14:28:36;;;;;;;8.13;6.22;;;;;;;32.62;31.94;99784.09;8601703;34;20199;-72
2021/09/09 14:33:39;;;;;;;9.30;6.43;;;;;;;33.02;31.15;99778.59;8601464;34;20752;-73
2021/09/09 14:38:42;;;;;;;6.60;6.00;;;;;;;29.73;35.90;99787.84;8601695;34;20570;-73
2021/09/09 14:43:46;;;;;;;7.90;6.13;;;;;;;28.89;37.09;99789.25;8600706;34;20266;-73
2021/09/09 14:48:49;;;;;;;9.63;7.15;;;;;;;30.25;35.92;99791.75;8601944;34;20176;-72
2021/09/09 14:53:52;;;;;;;7.43;6.43;;;;;;;31.58;33.08;99790.16;8603483;34;20163;-73
2021/09/09 14:58:57;;;;;;;6.82;5.82;;;;;;;31.76;33.40;99785.16;8601768;34;20327;-73
2021/09/09 15:04:00;;;;;;;7.80;5.95;;;;;;;32.47;31.54;99775.81;8601713;34;20145;-72
2021/09/09 15:09:03;;;;;;;7.60;6.00;;;;;;;31.05;33.37;99781.25;8601591;34;20287;-73
2021/09/09 15:14:07;;;;;;;6.82;5.95;;;;;;;30.28;35.00;99788.47;8600277;34;20242;-72
2021/09/09 15:19:10;;;;;;;8.05;6.28;;;;;;;31.17;33.67;99777.41;8601546;34;21647;-73
2021/09/09 15:24:13;;;;;;;7.75;6.55;;;;;;;31.57;33.10;99774.63;8600979;34;20957;-72
2021/09/09 15:29:18;;;;;;;9.27;6.47;;;;;;;30.45;34.93;99777.19;8600808;34;20185;-72
2021/09/09 15:34:21;;;;;;;8.15;6.30;;;;;;;29.98;36.03;99772.50;8599307;34;20200;-72
2021/09/09 15:39:24;;;;;;;10.43;6.53;;;;;;;29.63;36.61;99776.69;8600280;34;20180;-73
2021/09/09 15:44:29;;;;;;;8.35;6.68;;;;;;;30.52;35.54;99765.84;8599143;34;20195;-72
2021/09/09 15:49:32;;;;;;;8.45;6.38;;;;;;;31.12;34.39;99762.38;8596281;34;20740;-73
2021/09/09 15:54:35;;;;;;;7.40;6.35;;;;;;;31.28;35.01;99760.47;8600170;34;20682;-72
2021/09/09 15:59:39;;;;;;;9.05;6.07;;;;;;;31.37;35.03;99763.53;8600898;34;20923;-72
2021/09/09 16:04:42;;;;;;;6.65;6.03;;;;;;;31.23;35.33;99774.34;8598686;34;20184;-72
2021/09/09 16:09:45;;;;;;;8.20;6.45;;;;;;;30.33;35.99;99759.94;8598685;34;20179;-72
2021/09/09 16:14:50;;;;;;;9.70;7.10;;;;;;;29.21;37.87;99766.38;8594241;34;20188;-72
2021/09/09 16:19:54;;;;;;;9.75;6.70;;;;;;;28.94;38.74;99772.72;8595918;34;20319;-71
2021/09/09 16:24:57;;;;;;;7.85;6.75;;;;;;;29.04;38.78;99774.72;8599693;34;20234;-71
2021/09/09 16:30:01;;;;;;;8.32;6.82;;;;;;;29.05;39.35;99770.06;8601613;34;20177;-72
2021/09/09 16:35:05;;;;;;;10.27;7.47;;;;;;;28.50;40.08;99775.50;8600231;34;20535;-72
2021/09/09 16:40:09;;;;;;;9.68;7.38;;;;;;;27.70;41.78;99770.50;8599624;34;20196;-72
2021/09/09 16:45:14;;;;;;;8.88;7.35;;;;;;;27.37;42.70;99783.19;8598805;34;20204;-72
2021/09/09 16:50:17;;;;;;;14.13;7.78;;;;;;;26.77;43.54;99778.22;8598852;34;20646;-72
2021/09/09 16:55:20;;;;;;;10.50;7.72;;;;;;;26.66;45.07;99778.03;8598508;34;20258;-72
2021/09/09 17:00:25;;;;;;;8.75;7.53;;;;;;;26.88;44.93;99777.38;8599555;34;20130;-72
2021/09/09 17:05:28;;;;;;;10.88;7.57;;;;;;;26.55;45.58;99780.81;8574548;34;20617;-72
2021/09/09 17:10:31;;;;;;;12.48;8.15;;;;;;;26.38;45.99;99787.09;8600015;34;20544;-74
2021/09/09 17:15:36;;;;;;;9.85;7.75;;;;;;;26.29;45.71;99777.53;8598817;34;20455;-73
2021/09/09 17:20:39;;;;;;;12.63;9.00;;;;;;;26.12;46.27;99785.69;8599582;34;20574;-72
2021/09/09 17:25:42;;;;;;;11.35;8.25;;;;;;;25.73;48.55;99782.59;8598358;34;20160;-73
2021/09/09 17:30:47;;;;;;;10.05;7.97;;;;;;;25.57;48.70;99786.03;8598662;34;20134;-73
2021/09/09 17:35:51;;;;;;;9.90;8.70;;;;;;;25.49;48.55;99780.88;8597941;34;20294;-72
2021/09/09 17:40:55;;;;;;;10.88;8.27;;;;;;;25.36;48.54;99785.50;8598996;34;20872;-71
2021/09/09 17:45:59;;;;;;;9.68;8.55;;;;;;;25.14;49.26;99796.22;8598068;34;20181;-72
2021/09/09 17:51:02;;;;;;;10.13;8.98;;;;;;;25.00;49.05;99791.97;8599273;34;20548;-73
2021/09/09 17:56:06;;;;;;;11.95;8.57;;;;;;;24.86;50.04;99807.78;8602908;34;20157;-73
2021/09/09 18:01:10;;;;;;;13.00;9.20;;;;;;;24.65;49.76;99811.88;8603845;34;20189;-73
2021/09/09 18:06:14;;;;;;;13.15;9.90;;;;;;;24.54;50.29;99826.38;8603323;34;20627;-72
2021/09/09 18:11:17;;;;;;;12.05;9.48;;;;;;;24.58;49.99;99835.84;8604186;34;20635;-72
2021/09/09 18:16:22;;;;;;;12.65;8.93;;;;;;;24.54;50.50;99840.94;8602922;34;20235;-73
2021/09/09 18:21:25;;;;;;;12.70;9.35;;;;;;;24.43;50.73;99832.63;8603036;34;20547;-72
2021/09/09 18:26:28;;;;;;;13.85;9.32;;;;;;;24.42;51.12;99844.69;8602558;34;20461;-73
2021/09/09 18:31:33;;;;;;;11.48;8.73;;;;;;;24.38;51.07;99838.78;8603357;34;20146;-73
2021/09/09 18:36:36;;;;;;;13.93;9.20;;;;;;;24.31;51.28;99844.34;8603170;34;20197;-73
2021/09/09 18:41:39;;;;;;;13.50;9.98;;;;;;;23.90;53.06;99864.19;8603635;34;20550;-73
2021/09/09 18:46:44;;;;;;;12.80;10.23;;;;;;;23.59;53.48;99871.34;8601788;34;20193;-72
2021/09/09 18:57:49;;;;;;;18.00;11.73;;;;;;;23.13;55.89;99868.94;8601736;34;20189;-73
2021/09/09 19:02:54;;;;;;;14.30;10.90;;;;;;;23.15;56.46;99870.38;8608512;34;20134;-72
2021/09/09 19:07:58;;;;;;;13.38;10.25;;;;;;;23.28;56.33;99879.56;8603167;34;20199;-73
2021/09/09 19:13:01;;;;;;;14.40;10.95;;;;;;;23.26;57.09;99878.94;8603328;34;20248;-73
2021/09/09 19:18:09;;;;;;;15.55;10.55;;;;;;;23.12;57.59;99880.91;8606713;34;20937;-72
2021/09/09 19:23:17;;;;;;;11.48;9.60;;;;;;;23.25;57.15;99888.25;8584103;34;20444;-73
2021/09/09 19:28:20;;;;;;;14.27;10.35;;;;;;;23.26;57.42;99889.91;8608006;34;20538;-73
2021/09/09 19:33:25;;;;;;;13.93;9.90;;;;;;;23.47;57.25;99892.31;8612071;34;20698;-73
2021/09/09 19:38:28;;;;;;;12.75;10.05;;;;;;;23.53;57.00;99896.06;8611634;34;21368;-73
2021/09/09 19:43:32;;;;;;;14.07;10.57;;;;;;;23.54;56.93;99905.97;8610338;34;20213;-73
2021/09/09 19:48:38;;;;;;;13.13;10.55;;;;;;;23.54;57.11;99906.81;8608360;34;20444;-72
2021/09/09 19:53:41;;;;;;;15.75;10.90;;;;;;;23.41;58.17;99912.38;8609035;34;21946;-73
2021/09/09 19:58:44;;;;;;;15.50;10.95;;;;;;;23.14;60.50;99914.41;8606925;34;20397;-73
2021/09/09 20:03:49;;;;;;;17.40;12.43;;;;;;;22.32;68.41;99946.81;8611915;34;20189;-73
2021/09/09 20:08:54;;;;;;;20.15;13.77;;;;;;;19.45;80.29;99984.50;8607313;34;20186;-72
2021/09/09 20:13:57;;;;;;;22.33;15.10;;;;;;;18.92;84.57;100005.59;8605482;34;21464;-72
2021/09/09 20:19:01;;;;;;;14.57;10.50;;;;;;;18.64;85.33;100024.41;8601223;34;20181;-72
2021/09/09 20:24:05;;;;;;;16.17;10.20;;;;;;;18.96;84.73;100020.53;8600045;34;20197;-72
2021/09/09 20:29:09;;;;;;;19.13;11.20;;;;;;;18.89;84.70;100039.47;8600656;34;20177;-70
2021/09/09 20:34:13;;;;;;;8.18;4.75;;;;;;;18.22;79.79;100018.53;8600036;34;20252;-71
2021/09/09 20:39:16;;;;;;;6.53;2.10;;;;;;;16.12;80.19;99956.66;8601037;34;20169;-73
2021/09/09 20:44:20;;;;;;;4.30;2.20;;;;;;;14.67;91.97;99975.09;8601530;34;21102;-73
2021/09/09 20:49:25;;;;;;;5.22;2.17;;;;;;;14.33;95.57;99995.63;8601386;34;20181;-73
2021/09/09 20:54:28;;;;;;;5.25;2.85;;;;;;;14.76;97.73;100023.66;8598891;34;20182;-73
2021/09/09 20:59:31;;;;;;;6.90;2.58;;;;;;;15.01;97.04;100031.88;8598019;34;20674;-74
2021/09/09 21:04:35;;;;;;;5.65;2.78;;;;;;;15.58;96.25;100042.13;8598410;34;20659;-75
2021/09/09 21:09:38;;;;;;;5.45;2.90;;;;;;;15.87;92.65;100033.53;8599001;34;20216;-74
2021/09/09 21:14:44;;;;;;;6.70;3.20;;;;;;;15.91;92.82;100024.06;8595606;34;20161;-74
2021/09/09 21:19:49;;;;;;;5.40;3.33;;;;;;;16.09;92.70;100035.56;8598487;34;20217;-75
2021/09/09 21:24:52;;;;;;;9.02;3.88;;;;;;;16.41;93.72;100033.91;8598341;34;20185;-75
2021/09/09 21:29:55;;;;;;;9.45;4.25;;;;;;;16.86;93.35;100037.03;8603913;34;20288;-73
2021/09/09 21:34:59;;;;;;;7.57;5.18;;;;;;;17.08;93.54;100032.72;8602851;34;20252;-74
2021/09/09 21:40:03;;;;;;;11.90;6.20;;;;;;;17.24;94.18;100040.84;8603703;34;20991;-74
2021/09/09 21:45:09;;;;;;;13.95;6.82;;;;;;;17.26;93.77;100049.66;8603197;34;20185;-74
2021/09/09 21:50:14;;;;;;;10.90;7.20;;;;;;;17.31;93.43;100058.13;8604174;34;20700;-74
2021/09/09 21:55:17;;;;;;;0.40;0.40;;;;;;;17.52;96.75;100053.94;8603827;34;20176;-74
2021/09/09 22:00:20;;;;;;;0.20;0.20;;;;;;;17.68;95.10;100059.28;8603019;34;20250;-73
2021/09/09 22:05:24;;;;;;;1.80;0.52;;;;;;;17.61;95.50;100052.91;8602446;34;20583;-74
2021/09/09 22:10:27;;;;;;;1.00;1.00;;;;;;;17.55;97.06;100042.72;8602894;34;21513;-74
2021/09/09 22:15:30;;;;;;;0.50;0.50;;;;;;;17.53;98.80;100045.63;8578841;34;20149;-75
2021/09/09 22:20:35;;;;;;;3.75;2.00;;;;;;;17.53;99.13;100050.22;8602524;34;20682;-75
2021/09/09 22:25:38;;;;;;;8.45;2.17;;;;;;;17.40;98.09;100050.78;8602445;34;21003;-75
2021/09/09 22:30:42;;;;;;;0.57;0.57;;;;;;;17.31;97.45;100044.56;8592441;34;20161;-75
2021/09/09 22:35:46;;;;;;;0.95;0.95;;;;;;;17.37;96.95;100051.16;8601753;34;20627;-74
2021/09/09 22:40:49;;;;;;;1.38;1.35;;;;;;;17.42;96.64;100044.16;8577662;34;20422;-74
2021/09/09 22:45:52;;;;;;;1.25;1.02;;;;;;;17.51;95.04;100047.66;8601682;34;20285;-74
2021/09/09 22:50:59;;;;;;;3.72;1.13;;;;;;;17.58;94.44;100028.78;8602809;34;20200;-74
2021/09/09 22:56:02;;;;;;;0.80;0.75;;;;;;;17.64;93.89;100031.66;8602860;34;20472;-74
2021/09/09 23:01:05;;;;;;;1.20;0.88;;;;;;;17.65;93.91;100022.47;8602112;34;20197;-74
2021/09/09 23:06:10;;;;;;;0.73;0.73;;;;;;;17.57;94.01;100018.97;8602437;34;20185;-74
2021/09/09 23:11:13;;;;;;;3.28;2.28;;;;;;;17.44;93.25;100008.66;8602753;34;20236;-74
2021/09/09 23:16:17;;;;;;;0.43;0.43;;;;;;;17.38;93.51;100018.38;8600988;34;20691;-73
2021/09/09 23:21:22;;;;;;;0.30;0.30;;;;;;;17.43;94.05;100013.25;8601198;34;20648;-73
2021/09/09 23:26:25;;;;;;;12.88;9.43;;;;;;;17.43;93.62;100010.53;8600661;34;20180;-73
2021/09/09 23:31:33;;;;;;;15.93;10.20;;;;;;;17.45;93.71;100018.53;8600939;34;21190;-73
2021/09/09 23:36:38;;;;;;;16.25;10.13;;;;;;;17.66;94.06;100015.16;8575676;34;20173;-73